createdAt,value
2018-12-31T00:01:09.622Z,9.30
2018-12-31T00:03:38.897Z,9.20
2018-12-31T00:06:08.213Z,9.20
2018-12-31T00:08:38.134Z,9.20
2018-12-31T00:11:07.470Z,9.20
2018-12-31T00:13:37.168Z,9.30
2018-12-31T00:16:06.455Z,9.30
2018-12-31T00:18:35.749Z,9.20
2018-12-31T00:21:05.335Z,9.30
2018-12-31T00:23:34.698Z,9.30
2018-12-31T00:26:04.235Z,9.30
2018-12-31T00:28:34.772Z,9.30
2018-12-31T00:31:04.096Z,9.30
2018-12-31T00:33:38.409Z,9.30
2018-12-31T00:36:11.826Z,9.30
2018-12-31T00:38:41.400Z,9.20
2018-12-31T00:41:10.910Z,9.20
2018-12-31T00:43:40.219Z,9.20
2018-12-31T00:46:09.788Z,9.20
2018-12-31T00:48:39.156Z,9.30
2018-12-31T00:51:08.504Z,9.20
2018-12-31T00:53:38.138Z,9.30
2018-12-31T00:56:07.447Z,9.40
2018-12-31T00:58:36.823Z,9.30
2018-12-31T01:01:10.638Z,9.30
2018-12-31T01:03:40.348Z,9.30
2018-12-31T01:06:09.784Z,9.40
2018-12-31T01:08:42.186Z,9.40
2018-12-31T01:11:11.509Z,9.40
2018-12-31T01:13:40.819Z,9.50
2018-12-31T01:16:10.101Z,9.40
2018-12-31T01:18:39.407Z,9.40
2018-12-31T01:21:09.155Z,9.40
2018-12-31T01:23:38.469Z,9.40
2018-12-31T01:26:08.445Z,9.40
2018-12-31T01:28:38.124Z,9.40
2018-12-31T01:31:07.743Z,9.40
2018-12-31T01:33:38.263Z,9.40
2018-12-31T01:36:08.272Z,9.40
2018-12-31T01:38:37.574Z,9.40
2018-12-31T01:41:06.877Z,9.40
2018-12-31T01:43:36.167Z,9.40
2018-12-31T01:46:05.491Z,9.40
2018-12-31T01:48:35.127Z,9.40
2018-12-31T01:51:11.077Z,9.40
2018-12-31T01:53:35.870Z,9.40
2018-12-31T01:56:05.165Z,9.40
2018-12-31T01:58:34.438Z,9.40
2018-12-31T02:01:04.017Z,9.40
2018-12-31T02:03:33.287Z,9.30
2018-12-31T02:06:02.627Z,9.10
2018-12-31T02:08:31.904Z,9.20
2018-12-31T02:11:04.089Z,9.20
2018-12-31T02:13:33.451Z,9.30
2018-12-31T02:16:02.822Z,9.20
2018-12-31T02:18:32.370Z,9.20
2018-12-31T02:21:01.743Z,9.20
2018-12-31T02:23:31.006Z,9.10
2018-12-31T02:26:00.650Z,9.10
2018-12-31T02:28:30.432Z,9.10
2018-12-31T02:31:00.329Z,9.10
2018-12-31T02:33:29.614Z,9.20
2018-12-31T02:35:59.179Z,9.20
2018-12-31T02:38:28.778Z,9.20
2018-12-31T02:40:58.339Z,9.10
2018-12-31T02:43:27.845Z,9.10
2018-12-31T02:45:57.132Z,9.10
2018-12-31T02:48:26.409Z,9.10
2018-12-31T02:50:55.697Z,9.20
2018-12-31T02:53:25.035Z,9.20
2018-12-31T02:55:54.343Z,9.20
2018-12-31T02:58:23.951Z,9.20
2018-12-31T03:00:53.280Z,9.20
2018-12-31T03:03:23.005Z,9.30
2018-12-31T03:05:52.283Z,9.30
2018-12-31T03:08:22.024Z,9.40
2018-12-31T03:10:51.395Z,9.40
2018-12-31T03:13:21.074Z,9.40
2018-12-31T03:15:50.351Z,9.50
2018-12-31T03:18:19.650Z,9.40
2018-12-31T03:20:48.951Z,9.40
2018-12-31T03:23:18.327Z,9.40
2018-12-31T03:25:47.930Z,9.30
2018-12-31T03:28:17.549Z,9.40
2018-12-31T03:30:47.964Z,9.40
2018-12-31T03:33:17.915Z,9.40
2018-12-31T03:35:47.202Z,9.40
2018-12-31T03:38:16.546Z,9.40
2018-12-31T03:40:46.285Z,9.50
2018-12-31T03:43:15.569Z,9.50
2018-12-31T03:45:44.869Z,9.40
2018-12-31T03:48:14.616Z,9.40
2018-12-31T03:50:43.908Z,9.40
2018-12-31T03:53:13.174Z,9.40
2018-12-31T03:55:42.463Z,9.30
2018-12-31T03:58:11.729Z,9.30
2018-12-31T04:00:41.019Z,9.30
2018-12-31T04:03:10.465Z,9.40
2018-12-31T04:05:40.049Z,9.40
2018-12-31T04:08:09.333Z,9.50
2018-12-31T04:10:38.636Z,9.40
2018-12-31T04:13:07.923Z,9.30
2018-12-31T04:15:37.499Z,9.30
2018-12-31T04:18:06.785Z,9.30
2018-12-31T04:20:36.089Z,9.40
2018-12-31T04:23:05.670Z,9.40
2018-12-31T04:25:34.956Z,9.50
2018-12-31T04:28:04.520Z,9.50
2018-12-31T04:30:33.832Z,9.50
2018-12-31T04:33:03.671Z,9.50
2018-12-31T04:35:33.240Z,9.50
2018-12-31T04:38:02.516Z,9.50
2018-12-31T04:40:32.077Z,9.40
2018-12-31T04:43:01.633Z,9.50
2018-12-31T04:45:30.971Z,9.50
2018-12-31T04:48:00.668Z,9.60
2018-12-31T04:50:30.508Z,9.60
2018-12-31T04:53:00.096Z,9.60
2018-12-31T04:55:29.390Z,9.60
2018-12-31T04:57:59.042Z,9.50
2018-12-31T05:00:28.586Z,9.60
2018-12-31T05:02:57.954Z,9.50
2018-12-31T05:05:27.270Z,9.50
2018-12-31T05:07:56.554Z,9.60
2018-12-31T05:10:25.847Z,9.50
2018-12-31T05:12:55.844Z,9.60
2018-12-31T05:15:25.109Z,9.50
2018-12-31T05:17:54.412Z,9.50
2018-12-31T05:20:24.306Z,9.50
2018-12-31T05:22:53.656Z,9.50
2018-12-31T05:25:22.908Z,9.50
2018-12-31T05:27:52.292Z,9.50
2018-12-31T05:30:21.671Z,9.50
2018-12-31T05:32:51.031Z,9.50
2018-12-31T05:35:20.619Z,9.50
2018-12-31T05:37:50.605Z,9.50
2018-12-31T05:40:20.157Z,9.50
2018-12-31T05:42:49.724Z,9.50
2018-12-31T05:45:19.271Z,9.50
2018-12-31T05:47:48.840Z,9.50
2018-12-31T05:50:18.396Z,9.60
2018-12-31T05:52:47.696Z,9.60
2018-12-31T05:55:16.947Z,9.60
2018-12-31T05:57:46.603Z,9.60
2018-12-31T06:00:15.883Z,9.50
2018-12-31T06:02:45.414Z,9.60
2018-12-31T06:05:14.966Z,9.60
2018-12-31T06:07:44.810Z,9.60
2018-12-31T06:10:14.084Z,9.60
2018-12-31T06:12:43.992Z,9.60
2018-12-31T06:15:13.604Z,9.60
2018-12-31T06:17:43.346Z,9.50
2018-12-31T06:20:12.719Z,9.50
2018-12-31T06:22:42.008Z,9.60
2018-12-31T06:25:11.321Z,9.70
2018-12-31T06:27:40.696Z,9.60
2018-12-31T06:30:10.021Z,9.60
2018-12-31T06:32:39.424Z,9.50
2018-12-31T06:35:09.103Z,9.50
2018-12-31T06:37:38.726Z,9.50
2018-12-31T06:40:08.013Z,9.50
2018-12-31T06:42:37.373Z,9.50
2018-12-31T06:45:06.662Z,9.50
2018-12-31T06:47:35.944Z,9.50
2018-12-31T06:50:05.379Z,9.50
2018-12-31T06:52:34.660Z,9.40
2018-12-31T06:55:03.991Z,9.40
2018-12-31T06:57:33.890Z,9.40
2018-12-31T07:00:03.188Z,9.40
2018-12-31T07:02:32.451Z,9.40
2018-12-31T07:05:01.730Z,9.50
2018-12-31T07:07:31.060Z,9.50
2018-12-31T07:10:00.376Z,9.50
2018-12-31T07:12:29.681Z,9.50
2018-12-31T07:14:58.983Z,9.50
2018-12-31T07:17:28.323Z,9.50
2018-12-31T07:19:57.628Z,9.50
2018-12-31T07:22:26.916Z,9.40
2018-12-31T07:24:56.227Z,9.40
2018-12-31T07:27:25.804Z,9.40
2018-12-31T07:29:56.244Z,9.40
2018-12-31T07:32:25.656Z,9.40
2018-12-31T07:34:55.055Z,9.50
2018-12-31T07:37:24.596Z,9.50
2018-12-31T07:39:53.845Z,9.40
2018-12-31T07:42:23.187Z,9.40
2018-12-31T07:44:52.542Z,9.40
2018-12-31T07:47:22.184Z,9.40
2018-12-31T07:49:51.756Z,9.50
2018-12-31T07:52:21.046Z,9.40
2018-12-31T07:54:50.420Z,9.40
2018-12-31T07:57:19.963Z,9.40
2018-12-31T07:59:49.594Z,9.40
2018-12-31T08:02:18.887Z,9.40
2018-12-31T08:04:48.420Z,9.50
2018-12-31T08:07:17.743Z,9.60
2018-12-31T08:09:47.111Z,9.70
2018-12-31T08:12:16.755Z,9.80
2018-12-31T08:14:46.039Z,9.90
2018-12-31T08:17:15.577Z,10.00
2018-12-31T08:19:45.458Z,10.10
2018-12-31T08:22:15.056Z,10.00
2018-12-31T08:24:44.388Z,10.10
2018-12-31T08:27:13.794Z,10.10
2018-12-31T08:29:43.428Z,10.10
2018-12-31T08:32:13.120Z,10.00
2018-12-31T08:34:42.495Z,10.00
2018-12-31T08:37:12.132Z,10.00
2018-12-31T08:39:42.103Z,10.10
2018-12-31T08:42:11.430Z,10.10
2018-12-31T08:44:40.922Z,10.20
2018-12-31T08:47:10.555Z,10.20
2018-12-31T08:49:39.834Z,10.20
2018-12-31T08:52:09.388Z,10.10
2018-12-31T08:54:38.740Z,10.00
2018-12-31T08:57:08.071Z,10.00
2018-12-31T08:59:37.385Z,10.00
2018-12-31T09:02:06.693Z,10.00
2018-12-31T09:04:35.984Z,9.90
2018-12-31T09:07:05.496Z,10.00
2018-12-31T09:09:34.815Z,10.00
2018-12-31T09:12:04.411Z,10.10
2018-12-31T09:14:34.040Z,10.10
2018-12-31T09:17:03.912Z,10.00
2018-12-31T09:19:33.474Z,10.10
2018-12-31T09:22:02.763Z,10.10
2018-12-31T09:24:32.096Z,10.10
2018-12-31T09:27:01.456Z,10.10
2018-12-31T09:29:30.808Z,10.00
2018-12-31T09:32:00.064Z,10.00
2018-12-31T09:34:29.636Z,10.10
2018-12-31T09:36:58.981Z,10.10
2018-12-31T09:39:28.322Z,10.10
2018-12-31T09:41:57.590Z,10.20
2018-12-31T09:44:27.530Z,10.10
2018-12-31T09:46:56.842Z,10.10
2018-12-31T09:49:26.495Z,10.10
2018-12-31T09:51:55.754Z,10.10
2018-12-31T09:54:25.060Z,10.00
2018-12-31T09:56:54.684Z,10.00
2018-12-31T09:59:24.257Z,10.10
2018-12-31T10:01:53.555Z,10.10
2018-12-31T10:04:22.902Z,10.10
2018-12-31T10:06:52.455Z,10.20
2018-12-31T10:09:21.742Z,10.30
2018-12-31T10:11:51.527Z,10.30
2018-12-31T10:14:21.073Z,10.40
2018-12-31T10:16:50.401Z,10.40
2018-12-31T10:19:20.067Z,10.50
2018-12-31T10:21:49.707Z,10.50
2018-12-31T10:24:18.994Z,10.50
2018-12-31T10:26:48.360Z,10.50
2018-12-31T10:29:17.770Z,10.50
2018-12-31T10:31:47.047Z,10.50
2018-12-31T10:34:16.365Z,10.50
2018-12-31T10:36:52.718Z,10.50
2018-12-31T10:39:22.042Z,10.50
2018-12-31T10:41:54.391Z,10.50
2018-12-31T10:44:29.351Z,10.50
2018-12-31T10:46:58.901Z,10.40
2018-12-31T10:49:28.211Z,10.40
2018-12-31T10:52:02.251Z,10.50
2018-12-31T10:54:32.466Z,10.50
2018-12-31T10:57:02.188Z,10.60
2018-12-31T10:59:31.845Z,10.60
2018-12-31T11:02:01.213Z,10.60
2018-12-31T11:04:30.570Z,10.60
2018-12-31T11:07:02.662Z,10.70
2018-12-31T11:09:31.959Z,10.60
2018-12-31T11:12:01.324Z,10.60
2018-12-31T11:14:30.955Z,10.50
2018-12-31T11:17:00.537Z,10.50
2018-12-31T11:19:30.479Z,10.50
2018-12-31T11:21:59.824Z,10.50
2018-12-31T11:24:29.157Z,10.40
2018-12-31T11:26:58.713Z,10.40
2018-12-31T11:29:28.018Z,10.50
2018-12-31T11:31:57.327Z,10.50
2018-12-31T11:34:26.655Z,10.60
2018-12-31T11:36:55.939Z,10.70
2018-12-31T11:39:25.243Z,10.60
2018-12-31T11:41:54.540Z,10.60
2018-12-31T11:44:23.805Z,10.50
2018-12-31T11:46:53.483Z,10.60
2018-12-31T11:49:22.785Z,10.60
2018-12-31T11:51:52.652Z,10.70
2018-12-31T11:54:21.987Z,10.60
2018-12-31T11:56:51.298Z,10.70
2018-12-31T11:59:20.575Z,10.70
2018-12-31T12:01:50.127Z,10.70
2018-12-31T12:04:19.703Z,10.70
2018-12-31T12:06:49.023Z,10.60
2018-12-31T12:09:18.692Z,10.60
2018-12-31T12:11:48.135Z,10.60
2018-12-31T12:14:17.496Z,10.70
2018-12-31T12:16:46.849Z,10.70
2018-12-31T12:19:16.465Z,10.70
2018-12-31T12:21:46.907Z,10.70
2018-12-31T12:24:16.257Z,10.70
2018-12-31T12:26:45.663Z,10.70
2018-12-31T12:29:15.394Z,10.70
2018-12-31T12:31:45.174Z,10.70
2018-12-31T12:34:14.574Z,10.60
2018-12-31T12:36:44.162Z,10.70
2018-12-31T12:39:13.827Z,10.60
2018-12-31T12:41:43.611Z,10.60
2018-12-31T12:44:15.311Z,10.70
2018-12-31T12:46:45.855Z,10.70
2018-12-31T12:49:15.615Z,10.70
2018-12-31T12:51:45.223Z,10.80
2018-12-31T12:54:14.875Z,10.80
2018-12-31T12:56:44.583Z,10.80
2018-12-31T12:59:13.909Z,10.80
2018-12-31T13:01:43.808Z,10.70
2018-12-31T13:04:13.409Z,10.70
2018-12-31T13:06:42.715Z,10.60
2018-12-31T13:09:12.099Z,10.70
2018-12-31T13:11:41.468Z,10.70
2018-12-31T13:14:12.236Z,10.70
2018-12-31T13:16:42.248Z,10.60
2018-12-31T13:19:11.551Z,10.60
2018-12-31T13:21:40.850Z,10.60
2018-12-31T13:24:10.297Z,10.60
2018-12-31T13:26:43.772Z,10.70
2018-12-31T13:29:11.266Z,10.70
2018-12-31T13:31:40.636Z,10.60
2018-12-31T13:34:10.009Z,10.60
2018-12-31T13:36:39.608Z,10.60
2018-12-31T13:39:08.935Z,10.70
2018-12-31T13:41:38.580Z,10.70
2018-12-31T13:44:07.937Z,10.70
2018-12-31T13:46:37.420Z,10.70
2018-12-31T13:49:06.896Z,10.80
2018-12-31T13:51:37.121Z,10.80
2018-12-31T13:54:15.349Z,10.80
2018-12-31T13:56:45.108Z,10.90
2018-12-31T13:59:14.463Z,10.90
2018-12-31T14:01:53.739Z,10.90
2018-12-31T14:04:20.080Z,10.90
2018-12-31T14:06:49.700Z,11.00
2018-12-31T14:09:19.332Z,10.90
2018-12-31T14:11:48.801Z,10.90
2018-12-31T14:14:18.189Z,10.90
2018-12-31T14:16:47.569Z,10.90
2018-12-31T14:19:17.330Z,10.90
2018-12-31T14:21:46.698Z,10.90
2018-12-31T14:24:16.327Z,10.90
2018-12-31T14:26:45.822Z,10.80
2018-12-31T14:29:15.531Z,10.90
2018-12-31T14:31:44.964Z,11.00
2018-12-31T14:34:14.329Z,10.90
2018-12-31T14:36:43.987Z,10.90
2018-12-31T14:39:30.014Z,10.90
2018-12-31T14:41:59.467Z,10.90
2018-12-31T14:44:28.810Z,10.90
2018-12-31T14:46:58.403Z,10.90
2018-12-31T14:49:28.012Z,10.80
2018-12-31T14:51:57.355Z,10.80
2018-12-31T14:54:26.738Z,10.90
2018-12-31T14:56:56.791Z,10.90
2018-12-31T14:59:26.252Z,10.90
2018-12-31T15:01:55.677Z,10.90
2018-12-31T15:04:25.314Z,10.90
2018-12-31T15:06:54.765Z,10.80
2018-12-31T15:09:24.275Z,10.80
2018-12-31T15:11:54.885Z,10.70
2018-12-31T15:14:24.266Z,10.80
2018-12-31T15:16:53.606Z,10.70
2018-12-31T15:19:23.223Z,10.70
2018-12-31T15:21:52.883Z,10.70
2018-12-31T15:24:23.488Z,10.60
2018-12-31T15:26:53.953Z,10.70
2018-12-31T15:29:23.376Z,10.60
2018-12-31T15:31:53.876Z,10.60
2018-12-31T15:34:23.436Z,10.60
2018-12-31T15:36:53.991Z,10.60
2018-12-31T15:39:24.040Z,10.50
2018-12-31T15:41:53.632Z,10.50
2018-12-31T15:44:22.987Z,10.50
2018-12-31T15:46:52.291Z,10.40
2018-12-31T15:49:21.690Z,10.40
2018-12-31T15:51:52.315Z,10.40
2018-12-31T15:54:21.979Z,10.50
2018-12-31T15:56:51.292Z,10.50
2018-12-31T15:59:20.675Z,10.50
2018-12-31T16:01:50.327Z,10.50
2018-12-31T16:04:19.816Z,10.50
2018-12-31T16:06:49.134Z,10.40
2018-12-31T16:09:18.570Z,10.50
2018-12-31T16:11:47.964Z,10.50
2018-12-31T16:14:17.399Z,10.50
2018-12-31T16:16:47.304Z,10.40
2018-12-31T16:19:16.577Z,10.50
2018-12-31T16:21:46.379Z,10.40
2018-12-31T16:24:15.943Z,10.40
2018-12-31T16:26:45.592Z,10.40
2018-12-31T16:29:15.183Z,10.30
2018-12-31T16:31:44.923Z,10.40
2018-12-31T16:34:14.738Z,10.40
2018-12-31T16:36:44.044Z,10.40
2018-12-31T16:39:13.396Z,10.40
2018-12-31T16:41:42.804Z,10.50
2018-12-31T16:44:12.319Z,10.50
2018-12-31T16:46:41.675Z,10.40
2018-12-31T16:49:11.115Z,10.40
2018-12-31T16:51:40.489Z,10.30
2018-12-31T16:54:09.872Z,10.30
2018-12-31T16:56:39.284Z,10.30
2018-12-31T16:59:08.963Z,10.30
2018-12-31T17:01:38.560Z,10.40
2018-12-31T17:04:07.978Z,10.40
2018-12-31T17:06:38.078Z,10.40
2018-12-31T17:09:08.332Z,10.40
2018-12-31T17:11:37.641Z,10.40
2018-12-31T17:14:07.436Z,10.30
2018-12-31T17:16:36.836Z,10.30
2018-12-31T17:19:06.268Z,10.30
2018-12-31T17:21:35.863Z,10.30
2018-12-31T17:24:05.211Z,10.30
2018-12-31T17:26:35.034Z,10.30
2018-12-31T17:29:04.463Z,10.30
2018-12-31T17:31:33.744Z,10.30
2018-12-31T17:34:03.111Z,10.30
2018-12-31T17:36:32.648Z,10.30
2018-12-31T17:39:02.256Z,10.20
2018-12-31T17:41:31.808Z,10.20
2018-12-31T17:44:01.139Z,10.20
2018-12-31T17:46:30.889Z,10.20
2018-12-31T17:49:00.675Z,10.20
2018-12-31T17:51:30.228Z,10.20
2018-12-31T17:53:59.858Z,10.20
2018-12-31T17:56:29.195Z,10.20
2018-12-31T17:58:58.678Z,10.20
2018-12-31T18:01:28.043Z,10.20
2018-12-31T18:03:57.327Z,10.20
2018-12-31T18:06:26.667Z,10.30
2018-12-31T18:08:56.000Z,10.30
2018-12-31T18:11:25.810Z,10.30
2018-12-31T18:13:55.076Z,10.30
2018-12-31T18:16:24.365Z,10.30
2018-12-31T18:18:54.725Z,10.30
2018-12-31T18:21:24.313Z,10.30
2018-12-31T18:23:53.993Z,10.30
2018-12-31T18:26:24.072Z,10.30
2018-12-31T18:28:53.758Z,10.20
2018-12-31T18:31:23.154Z,10.30
2018-12-31T18:33:52.817Z,10.20
2018-12-31T18:36:22.688Z,10.20
2018-12-31T18:38:52.370Z,10.20
2018-12-31T18:41:21.655Z,10.30
2018-12-31T18:43:51.502Z,10.20
2018-12-31T18:46:21.110Z,10.20
2018-12-31T18:48:50.484Z,10.20
2018-12-31T18:51:20.739Z,10.20
2018-12-31T18:53:50.078Z,10.20
2018-12-31T18:56:20.143Z,10.20
2018-12-31T18:58:50.248Z,10.20
2018-12-31T19:01:19.942Z,10.10
2018-12-31T19:03:49.594Z,10.10
2018-12-31T19:06:18.971Z,10.00
2018-12-31T19:08:48.360Z,10.00
2018-12-31T19:11:17.931Z,10.10
2018-12-31T19:13:47.312Z,10.10
2018-12-31T19:16:16.714Z,10.10
2018-12-31T19:18:48.386Z,10.10
2018-12-31T19:21:18.696Z,10.00
2018-12-31T19:23:49.382Z,10.10
2018-12-31T19:26:18.755Z,10.10
2018-12-31T19:28:48.098Z,10.10
2018-12-31T19:31:17.400Z,10.10
2018-12-31T19:33:47.160Z,10.00
2018-12-31T19:36:19.328Z,10.10
2018-12-31T19:38:48.749Z,10.00
2018-12-31T19:41:18.835Z,10.00
2018-12-31T19:43:53.911Z,9.90
2018-12-31T19:46:23.280Z,10.00
2018-12-31T19:48:52.639Z,9.90
2018-12-31T19:51:22.319Z,9.90
2018-12-31T19:53:52.281Z,9.90
2018-12-31T19:56:22.295Z,9.90
2018-12-31T19:58:51.620Z,9.90
2018-12-31T20:01:21.831Z,9.90
2018-12-31T20:03:51.286Z,9.90
2018-12-31T20:06:20.705Z,9.90
2018-12-31T20:08:50.043Z,9.90
2018-12-31T20:11:19.601Z,9.90
2018-12-31T20:13:49.059Z,9.80
2018-12-31T20:16:18.555Z,9.80
2018-12-31T20:18:50.207Z,9.70
2018-12-31T20:21:19.754Z,9.70
2018-12-31T20:23:49.154Z,9.70
2018-12-31T20:26:18.808Z,9.60
2018-12-31T20:28:49.119Z,9.60
2018-12-31T20:31:18.861Z,9.70
2018-12-31T20:33:48.170Z,9.60
2018-12-31T20:36:17.770Z,9.60
2018-12-31T20:38:49.743Z,9.60
2018-12-31T20:41:27.379Z,9.60
2018-12-31T20:43:58.329Z,9.60
2018-12-31T20:46:28.476Z,9.60
2018-12-31T20:49:01.448Z,9.60
2018-12-31T20:51:30.515Z,9.70
2018-12-31T20:54:05.140Z,9.60
2018-12-31T20:56:35.103Z,9.60
2018-12-31T20:59:04.630Z,9.60
2018-12-31T21:01:34.292Z,9.70
2018-12-31T21:04:03.703Z,9.70
2018-12-31T21:06:34.228Z,9.60
2018-12-31T21:09:05.548Z,9.60
2018-12-31T21:11:35.830Z,9.50
2018-12-31T21:14:05.239Z,9.50
2018-12-31T21:16:34.607Z,9.50
2018-12-31T21:19:04.275Z,9.50
2018-12-31T21:21:33.666Z,9.50
2018-12-31T21:24:03.052Z,9.60
2018-12-31T21:26:32.677Z,9.50
2018-12-31T21:29:02.337Z,9.50
2018-12-31T21:31:31.940Z,9.40
2018-12-31T21:34:01.308Z,9.40
2018-12-31T21:36:31.217Z,9.40
2018-12-31T21:39:00.895Z,9.40
2018-12-31T21:41:30.495Z,9.50
2018-12-31T21:44:00.319Z,9.60
2018-12-31T21:46:29.690Z,9.70
2018-12-31T21:49:00.277Z,9.60
2018-12-31T21:51:29.701Z,9.60
2018-12-31T21:53:58.966Z,9.70
2018-12-31T21:56:28.330Z,9.70
2018-12-31T21:58:59.344Z,9.70
2018-12-31T22:01:28.717Z,9.70
2018-12-31T22:03:58.360Z,9.70
2018-12-31T22:06:27.805Z,9.70
2018-12-31T22:08:57.162Z,9.60
2018-12-31T22:11:26.959Z,9.60
2018-12-31T22:13:56.628Z,9.70
2018-12-31T22:16:26.460Z,9.60
2018-12-31T22:18:56.266Z,9.70
2018-12-31T22:21:26.519Z,9.70
2018-12-31T22:23:59.218Z,9.60
2018-12-31T22:26:28.926Z,9.60
2018-12-31T22:28:58.672Z,9.60
2018-12-31T22:31:28.507Z,9.50
2018-12-31T22:33:58.088Z,9.60
2018-12-31T22:36:27.656Z,9.60
2018-12-31T22:38:57.716Z,9.70
2018-12-31T22:41:27.050Z,9.70
2018-12-31T22:43:56.356Z,9.80
2018-12-31T22:46:26.274Z,9.90
2018-12-31T22:48:55.591Z,9.90
2018-12-31T22:51:24.930Z,9.90
2018-12-31T22:53:54.337Z,9.90
2018-12-31T22:56:23.635Z,9.90
2018-12-31T22:58:53.226Z,9.90
2018-12-31T23:01:22.949Z,9.90
2018-12-31T23:03:52.324Z,9.80
2018-12-31T23:06:22.363Z,9.80
2018-12-31T23:08:54.523Z,9.80
2018-12-31T23:11:24.056Z,9.80
2018-12-31T23:13:53.499Z,9.90
2018-12-31T23:16:25.635Z,9.80
2018-12-31T23:18:55.306Z,9.80
2018-12-31T23:21:24.863Z,9.80
2018-12-31T23:23:54.234Z,9.80
2018-12-31T23:26:24.142Z,9.80
2018-12-31T23:28:53.512Z,9.80
2018-12-31T23:31:22.911Z,9.80
2018-12-31T23:33:52.254Z,9.70
2018-12-31T23:36:22.644Z,9.70
2018-12-31T23:38:53.391Z,9.70
2018-12-31T23:41:23.014Z,9.70
2018-12-31T23:43:52.700Z,9.60
2018-12-31T23:46:22.032Z,9.60
2018-12-31T23:48:55.924Z,9.60
2018-12-31T23:51:25.416Z,9.60
2018-12-31T23:53:55.082Z,9.60
2018-12-31T23:56:24.887Z,9.60
2018-12-31T23:58:54.585Z,9.60
